Time;durP1;ratioP1;P1;durP2;ratioP2;P2;SDS_P1;SDS_P2;PMS_P1;PMS_P2;Temp;Humidity;BMP_temperature;BMP_pressure;BME280_temperature;BME280_humidity;BME280_pressure;Samples;Min_cycle;Max_cycle;Signal;HPM_P1;HPM_P2
2023/09/18 00:02:11;;;;;;;;;0.00;0.00;;;;;28.85;45.78;100414.59;5037680;28;45231;-75
2023/09/18 00:04:36;;;;;;;;;2.00;2.00;;;;;28.69;45.91;100415.31;5037194;28;46055;-75
2023/09/18 00:07:02;;;;;;;;;3.00;3.00;;;;;28.83;45.79;100419.34;5037651;28;45374;-75
2023/09/18 00:09:27;;;;;;;;;2.67;1.67;;;;;28.75;45.55;100419.72;5037686;28;45388;-74
2023/09/18 00:11:53;;;;;;;;;2.33;2.33;;;;;28.92;45.41;100435.84;5019725;28;45415;-76
2023/09/18 00:14:18;;;;;;;;;3.33;2.00;;;;;28.51;45.73;100371.59;5019841;28;45383;-74
2023/09/18 00:16:44;;;;;;;;;4.33;3.33;;;;;28.89;45.64;100439.00;5037194;28;46627;-74
2023/09/18 00:19:10;;;;;;;;;2.00;2.00;;;;;28.74;45.88;100421.59;5037150;28;45469;-74
2023/09/18 00:21:36;;;;;;;;;2.00;2.00;;;;;28.88;45.52;100439.25;5037446;28;45459;-75
2023/09/18 00:24:03;;;;;;;;;4.00;2.00;;;;;28.91;46.05;100444.94;5037161;28;45371;-74
2023/09/18 00:26:28;;;;;;;;;3.33;2.00;;;;;28.90;45.51;100437.97;5037008;28;45362;-75
2023/09/18 00:28:53;;;;;;;;;2.67;2.67;;;;;28.89;45.69;100432.81;5036985;28;45435;-75
2023/09/18 00:31:19;;;;;;;;;2.00;2.00;;;;;28.30;45.80;100336.38;5037402;28;45835;-74
2023/09/18 00:33:44;;;;;;;;;2.00;2.00;;;;;28.90;46.14;100429.09;5036958;28;45219;-74
2023/09/18 00:36:10;;;;;;;;;3.67;3.00;;;;;28.63;45.48;100388.44;5037072;28;46293;-75
2023/09/18 00:38:35;;;;;;;;;2.00;2.00;;;;;28.76;46.18;100393.75;5037229;28;45357;-75
2023/09/18 00:41:01;;;;;;;;;3.00;2.00;;;;;28.82;45.74;100412.38;5037062;28;45784;-76
2023/09/18 00:43:26;;;;;;;;;2.33;2.33;;;;;28.80;45.97;100411.81;5018232;28;45227;-75
2023/09/18 00:45:52;;;;;;;;;3.67;2.00;;;;;28.93;45.48;100431.31;5017077;28;45403;-75
2023/09/18 00:48:17;;;;;;;;;2.00;2.00;;;;;28.93;45.55;100420.59;5016824;28;45234;-75
2023/09/18 00:50:47;;;;;;;;;2.33;2.33;;;;;28.89;45.61;100427.47;5029895;28;45303;-76
2023/09/18 00:53:23;;;;;;;;;2.33;2.33;;;;;28.71;45.40;100399.81;5036924;28;45317;-74
2023/09/18 00:55:52;;;;;;;;;2.00;2.00;;;;;28.87;45.41;100394.78;5036828;28;45478;-75
2023/09/18 00:58:17;;;;;;;;;0.33;0.33;;;;;28.86;45.42;100404.66;5036636;28;45546;-75
2023/09/18 01:00:44;;;;;;;;;3.00;2.67;;;;;28.68;45.27;100363.63;5036475;28;45229;-75
2023/09/18 01:03:10;;;;;;;;;2.33;2.00;;;;;28.82;45.48;100382.94;5036603;28;45470;-75
2023/09/18 01:05:36;;;;;;;;;3.00;3.00;;;;;28.82;45.32;100377.56;5036675;28;46476;-75
2023/09/18 01:08:02;;;;;;;;;1.33;1.33;;;;;28.90;45.69;100383.59;5036904;28;45329;-75
2023/09/18 01:10:36;;;;;;;;;2.00;2.00;;;;;28.87;45.10;100376.84;5036760;28;45387;-74
2023/09/18 01:13:13;;;;;;;;;1.33;1.33;;;;;28.94;45.66;100376.69;5036936;28;45522;-75
2023/09/18 01:15:56;;;;;;;;;2.00;2.00;;;;;28.93;45.20;100377.75;5036115;28;46585;-75
2023/09/18 01:18:21;;;;;;;;;2.00;2.00;;;;;28.93;45.79;100372.41;5036415;28;45375;-75
2023/09/18 01:20:46;;;;;;;;;2.00;1.00;;;;;28.89;45.48;100368.56;5036566;28;45360;-76
2023/09/18 01:23:12;;;;;;;;;2.00;2.00;;;;;28.50;45.09;100309.25;5036506;28;45381;-75
2023/09/18 01:25:37;;;;;;;;;2.00;2.00;;;;;28.90;45.77;100356.81;5036457;28;45681;-75
2023/09/18 01:28:03;;;;;;;;;2.00;2.00;;;;;28.85;45.27;100344.97;5036221;28;45428;-75
2023/09/18 01:30:29;;;;;;;;;1.00;1.00;;;;;28.73;45.68;100334.28;5036091;28;45253;-75
2023/09/18 01:32:56;;;;;;;;;3.00;3.00;;;;;28.60;45.68;100305.13;5036308;28;45423;-75
2023/09/18 01:35:28;;;;;;;;;1.33;1.33;;;;;28.78;45.28;100325.53;5036144;28;47155;-74
2023/09/18 01:37:56;;;;;;;;;2.33;2.00;;;;;28.69;45.48;100310.94;5035358;28;45429;-75
2023/09/18 01:40:23;;;;;;;;;2.67;2.00;;;;;28.83;45.03;100341.69;5036238;28;45462;-75
2023/09/18 01:42:48;;;;;;;;;2.33;2.33;;;;;28.42;45.40;100269.44;5022303;28;45525;-75
2023/09/18 01:45:13;;;;;;;;;3.00;3.00;;;;;28.89;45.46;100333.75;5015797;28;46475;-75
2023/09/18 01:47:39;;;;;;;;;3.00;3.00;;;;;28.14;45.36;100220.25;5016081;28;45366;-75
2023/09/18 01:50:07;;;;;;;;;2.00;2.00;;;;;28.91;45.42;100348.53;5023739;28;45482;-75
2023/09/18 01:52:34;;;;;;;;;2.33;2.00;;;;;28.93;45.34;100343.78;5035924;28;45481;-75
2023/09/18 01:55:00;;;;;;;;;2.00;2.00;;;;;28.74;45.34;100317.19;5035826;28;46624;-75
2023/09/18 01:57:25;;;;;;;;;0.00;0.00;;;;;28.65;45.43;100320.50;5035969;28;45233;-75
2023/09/18 01:59:51;;;;;;;;;1.00;1.00;;;;;28.95;45.42;100357.72;5035618;28;45348;-75
2023/09/18 02:02:16;;;;;;;;;2.00;2.00;;;;;28.79;45.21;100324.50;5036013;28;45364;-75
2023/09/18 02:04:41;;;;;;;;;2.00;2.00;;;;;28.94;45.04;100348.06;5035458;28;46141;-75
2023/09/18 02:07:07;;;;;;;;;2.33;2.33;;;;;28.95;45.60;100352.38;5035898;28;45369;-75
2023/09/18 02:09:32;;;;;;;;;2.00;2.00;;;;;28.95;45.15;100349.69;5035964;28;45286;-75
2023/09/18 02:11:58;;;;;;;;;0.00;0.00;;;;;28.81;45.11;100325.06;5036058;28;45381;-75
2023/09/18 02:14:23;;;;;;;;;2.00;2.00;;;;;28.63;45.14;100310.84;5035407;28;46140;-75
2023/09/18 02:16:49;;;;;;;;;2.00;2.00;;;;;28.83;45.22;100339.03;5017658;28;45569;-75
2023/09/18 02:19:15;;;;;;;;;2.00;2.00;;;;;28.96;45.19;100363.91;5035925;28;45333;-75
2023/09/18 02:21:41;;;;;;;;;2.00;2.00;;;;;28.95;45.37;100355.06;5035649;28;45408;-75
2023/09/18 02:24:07;;;;;;;;;2.00;2.00;;;;;27.90;45.50;100197.06;5035183;28;46207;-75
2023/09/18 02:26:32;;;;;;;;;1.00;1.00;;;;;28.54;45.09;100300.75;5035516;28;45421;-75
2023/09/18 02:29:00;;;;;;;;;1.00;1.00;;;;;28.69;44.97;100313.59;5035299;28;45483;-75
2023/09/18 02:31:25;;;;;;;;;1.33;1.33;;;;;28.79;45.48;100329.84;5035633;28;45305;-75
2023/09/18 02:33:51;;;;;;;;;1.67;1.00;;;;;28.85;45.36;100336.94;5035404;28;45437;-75
2023/09/18 02:36:16;;;;;;;;;2.00;2.00;;;;;28.93;45.79;100367.88;5035289;28;45436;-75
2023/09/18 02:38:42;;;;;;;;;0.33;0.33;;;;;28.91;45.22;100359.25;5035500;28;45242;-73
2023/09/18 02:41:08;;;;;;;;;2.67;1.67;;;;;28.79;44.90;100337.88;5035371;28;45306;-75
2023/09/18 02:43:33;;;;;;;;;1.33;1.33;;;;;28.81;45.31;100349.16;4993768;28;47330;-75
2023/09/18 02:45:59;;;;;;;;;0.00;0.00;;;;;28.72;45.11;100321.16;4995746;28;45374;-74
2023/09/18 02:48:24;;;;;;;;;1.33;1.33;;;;;28.83;45.60;100322.16;4996800;28;45465;-75
2023/09/18 02:50:49;;;;;;;;;1.00;1.00;;;;;28.40;45.02;100264.34;5026923;28;45338;-76
2023/09/18 02:53:21;;;;;;;;;1.67;1.67;;;;;28.94;45.52;100333.84;5038787;28;46133;-75
2023/09/18 02:55:48;;;;;;;;;1.00;1.00;;;;;28.93;45.11;100333.06;5038785;28;45318;-75
2023/09/18 02:58:13;;;;;;;;;2.33;1.00;;;;;28.67;45.10;100294.31;5038467;28;45481;-75
2023/09/18 03:00:43;;;;;;;;;2.00;2.00;;;;;28.93;45.68;100338.41;5038510;28;45456;-74
2023/09/18 03:03:09;;;;;;;;;2.00;2.00;;;;;28.82;44.87;100317.84;5038244;28;45373;-74
2023/09/18 03:05:35;;;;;;;;;2.67;2.67;;;;;28.94;44.97;100348.06;5038599;28;45393;-75
2023/09/18 03:08:00;;;;;;;;;2.00;2.00;;;;;28.67;45.55;100308.50;5038635;28;45380;-75
2023/09/18 03:10:26;;;;;;;;;2.00;2.00;;;;;28.82;44.74;100324.03;5038538;28;45344;-75
2023/09/18 03:12:51;;;;;;;;;1.67;1.67;;;;;28.90;45.17;100330.88;5038034;28;46167;-74
2023/09/18 03:15:16;;;;;;;;;2.67;2.67;;;;;28.78;44.99;100314.03;5038336;28;45289;-74
2023/09/18 03:17:42;;;;;;;;;1.67;1.67;;;;;28.72;45.14;100307.78;5038481;28;45365;-75
2023/09/18 03:20:08;;;;;;;;;2.00;1.00;;;;;28.74;44.91;100322.53;5038460;28;45348;-74
2023/09/18 03:22:34;;;;;;;;;1.00;1.00;;;;;28.91;45.03;100345.84;5038238;28;46810;-75
2023/09/18 03:25:00;;;;;;;;;1.00;1.00;;;;;27.92;44.88;100192.28;5037969;28;45376;-75
2023/09/18 03:27:28;;;;;;;;;2.00;2.00;;;;;28.77;45.26;100320.44;5037779;28;45301;-75
2023/09/18 03:29:54;;;;;;;;;1.00;1.00;;;;;28.84;45.32;100327.28;5038494;28;45234;-74
2023/09/18 03:32:20;;;;;;;;;1.33;1.33;;;;;28.71;45.11;100315.00;5020250;28;46035;-75
2023/09/18 03:34:45;;;;;;;;;1.33;1.33;;;;;28.84;45.09;100331.81;5038034;28;45225;-75
2023/09/18 03:37:11;;;;;;;;;1.00;1.00;;;;;28.91;45.14;100345.84;5038350;28;45363;-75
2023/09/18 03:39:36;;;;;;;;;1.00;1.00;;;;;28.84;45.49;100332.63;5038302;28;45364;-75
2023/09/18 03:42:02;;;;;;;;;2.00;2.00;;;;;28.80;44.86;100344.06;5030307;28;45433;-75
2023/09/18 03:44:27;;;;;;;;;1.00;1.00;;;;;28.88;45.44;100345.53;5018116;28;45358;-74
2023/09/18 03:46:53;;;;;;;;;0.33;0.33;;;;;28.59;44.96;100303.53;5018065;28;45696;-75
2023/09/18 03:49:18;;;;;;;;;1.00;1.00;;;;;28.80;44.83;100326.13;5019317;28;45464;-74
2023/09/18 03:51:44;;;;;;;;;1.00;1.00;;;;;28.91;45.04;100342.38;5037846;28;46212;-75
2023/09/18 03:54:09;;;;;;;;;2.67;2.67;;;;;28.79;44.71;100321.81;5037913;28;45499;-75
2023/09/18 03:56:35;;;;;;;;;3.00;3.00;;;;;28.62;45.04;100303.06;5037618;28;45437;-75
2023/09/18 03:59:01;;;;;;;;;2.00;2.00;;;;;28.62;45.64;100309.19;5037737;28;45537;-75
2023/09/18 04:01:27;;;;;;;;;1.33;1.00;;;;;28.66;44.66;100314.06;5036901;28;45571;-76
2023/09/18 04:03:53;;;;;;;;;0.67;0.67;;;;;28.76;44.86;100308.09;5037293;28;45408;-75
2023/09/18 04:06:20;;;;;;;;;1.67;1.67;;;;;28.75;44.81;100304.63;5037562;28;45372;-75
2023/09/18 04:08:46;;;;;;;;;2.67;2.67;;;;;28.88;44.87;100302.69;5037674;28;45490;-75
2023/09/18 04:11:11;;;;;;;;;2.33;1.00;;;;;28.76;45.01;100292.84;5036971;28;45942;-75
2023/09/18 04:13:37;;;;;;;;;1.00;1.00;;;;;28.74;44.73;100289.59;5037618;28;45231;-75
2023/09/18 04:16:04;;;;;;;;;1.00;1.00;;;;;28.89;44.94;100309.66;5037653;28;45246;-75
2023/09/18 04:18:29;;;;;;;;;3.00;2.00;;;;;28.86;44.66;100300.25;5037508;28;45285;-75
2023/09/18 04:20:54;;;;;;;;;1.00;1.00;;;;;28.85;45.02;100306.69;5036995;28;47541;-75
2023/09/18 04:23:25;;;;;;;;;1.00;1.00;;;;;28.93;45.15;100314.31;5037270;28;45477;-75
2023/09/18 04:25:52;;;;;;;;;1.00;1.00;;;;;28.93;44.84;100311.66;5037566;28;45626;-75
2023/09/18 04:28:19;;;;;;;;;1.67;1.00;;;;;28.82;44.75;100297.25;5037363;28;45365;-74
2023/09/18 04:30:46;;;;;;;;;1.00;1.00;;;;;28.89;44.58;100304.31;5036894;28;45546;-74
2023/09/18 04:33:12;;;;;;;;;2.00;2.00;;;;;28.28;44.70;100218.94;5037048;28;45400;-74
2023/09/18 04:35:39;;;;;;;;;2.00;2.00;;;;;28.87;45.09;100312.59;5037193;28;45514;-75
2023/09/18 04:38:06;;;;;;;;;1.00;1.00;;;;;28.82;44.69;100296.44;5036738;28;45414;-75
2023/09/18 04:40:32;;;;;;;;;2.00;2.00;;;;;28.29;44.83;100225.06;5036791;28;45741;-75
2023/09/18 04:43:01;;;;;;;;;1.00;1.00;;;;;28.91;45.06;100307.59;5021874;28;45311;-75
2023/09/18 04:45:26;;;;;;;;;2.00;2.00;;;;;28.91;44.72;100313.72;5017556;28;45345;-74
2023/09/18 04:47:53;;;;;;;;;0.00;0.00;;;;;28.91;44.85;100320.97;5017135;28;45519;-75
2023/09/18 04:50:18;;;;;;;;;2.00;2.00;;;;;28.86;44.88;100310.97;5026340;28;45327;-75
2023/09/18 04:52:44;;;;;;;;;2.00;2.00;;;;;28.77;44.44;100318.59;5036550;28;45471;-75
2023/09/18 04:55:10;;;;;;;;;1.00;1.00;;;;;28.89;45.16;100334.59;5037170;28;45295;-75
2023/09/18 04:57:36;;;;;;;;;1.00;1.00;;;;;28.89;44.18;100323.06;5036936;28;45587;-74
2023/09/18 05:00:02;;;;;;;;;1.00;1.00;;;;;28.90;44.93;100332.72;5036439;28;46775;-74
2023/09/18 05:02:28;;;;;;;;;1.00;1.00;;;;;28.90;44.79;100330.88;5036475;28;45388;-75
2023/09/18 05:04:56;;;;;;;;;0.67;0.67;;;;;28.78;44.64;100322.88;5036625;28;45412;-75
2023/09/18 05:07:21;;;;;;;;;2.00;1.00;;;;;27.92;45.00;100173.56;5036456;28;45538;-75
2023/09/18 05:09:46;;;;;;;;;1.33;1.33;;;;;28.88;44.81;100329.47;5036525;28;46548;-74
2023/09/18 05:12:13;;;;;;;;;0.33;0.33;;;;;28.92;44.54;100327.94;5036576;28;45480;-75
2023/09/18 05:14:43;;;;;;;;;1.00;1.00;;;;;28.83;44.98;100319.50;5036610;28;45504;-74
2023/09/18 05:17:15;;;;;;;;;0.00;0.00;;;;;28.85;45.02;100338.81;5036543;28;45163;-74
2023/09/18 05:19:40;;;;;;;;;1.00;1.00;;;;;28.24;44.63;100238.34;5036237;28;46365;-74
2023/09/18 05:22:06;;;;;;;;;2.00;2.00;;;;;28.73;44.94;100312.88;5032669;28;45254;-75
2023/09/18 05:24:32;;;;;;;;;1.67;1.00;;;;;28.66;44.90;100304.19;5007368;28;45341;-76
2023/09/18 05:26:57;;;;;;;;;2.00;2.00;;;;;28.56;44.68;100298.63;4999154;28;45271;-74
2023/09/18 05:29:22;;;;;;;;;2.33;1.00;;;;;28.88;44.50;100341.00;4996495;28;45505;-74
2023/09/18 05:31:48;;;;;;;;;1.00;1.00;;;;;28.88;44.80;100348.22;4996395;28;45350;-73
2023/09/18 05:34:13;;;;;;;;;2.00;1.00;;;;;28.85;45.01;100341.47;4996539;28;45382;-74
2023/09/18 05:36:39;;;;;;;;;2.67;2.00;;;;;28.71;44.47;100316.84;4996241;28;45320;-74
2023/09/18 05:39:09;;;;;;;;;1.67;1.00;;;;;28.57;44.85;100298.41;4996227;28;45509;-74
2023/09/18 05:41:35;;;;;;;;;1.00;1.00;;;;;28.94;44.81;100352.59;4999827;28;45421;-74
2023/09/18 05:44:03;;;;;;;;;1.00;1.00;;;;;28.91;44.65;100347.75;5016170;28;45226;-72
2023/09/18 05:46:29;;;;;;;;;1.33;1.00;;;;;28.91;44.99;100334.34;5016318;28;45551;-76
2023/09/18 05:48:56;;;;;;;;;1.00;1.00;;;;;28.97;45.15;100346.78;5003121;28;45591;-75
2023/09/18 05:51:22;;;;;;;;;1.67;1.67;;;;;28.86;44.71;100321.66;5032021;28;45392;-74
2023/09/18 05:53:47;;;;;;;;;1.67;1.67;;;;;28.69;44.81;100308.25;5018782;28;45344;-74
2023/09/18 05:56:14;;;;;;;;;2.00;1.00;;;;;28.77;44.76;100318.59;5003069;28;45402;-74
2023/09/18 05:58:39;;;;;;;;;2.00;0.67;;;;;28.89;44.56;100339.94;4996000;28;47244;-74
2023/09/18 06:01:06;;;;;;;;;1.00;1.00;;;;;28.67;44.79;100310.34;5012376;28;45366;-73
2023/09/18 06:03:35;;;;;;;;;1.00;1.00;;;;;28.85;44.82;100336.94;5023974;28;45399;-73
2023/09/18 06:06:04;;;;;;;;;2.00;2.00;;;;;28.96;44.91;100347.84;5035140;28;45502;-72
2023/09/18 06:08:30;;;;;;;;;1.00;1.00;;;;;28.75;44.87;100315.34;5035692;28;46044;-73
2023/09/18 06:10:56;;;;;;;;;0.00;0.00;;;;;28.97;44.79;100352.13;5035267;28;45292;-73
2023/09/18 06:13:22;;;;;;;;;1.00;1.00;;;;;28.87;44.50;100341.22;5035492;28;45388;-73
2023/09/18 06:15:48;;;;;;;;;2.00;2.00;;;;;28.73;44.25;100331.63;5035713;28;45228;-73
2023/09/18 06:18:13;;;;;;;;;2.67;1.00;;;;;28.11;44.32;100224.19;5035481;28;45245;-74
2023/09/18 06:20:39;;;;;;;;;2.00;1.67;;;;;28.91;44.59;100345.06;5035094;28;45662;-74
2023/09/18 06:23:05;;;;;;;;;1.00;1.00;;;;;28.99;44.75;100355.38;5035044;28;45301;-74
2023/09/18 06:25:31;;;;;;;;;1.67;1.00;;;;;28.58;44.90;100294.69;5035382;28;45416;-71
2023/09/18 06:27:56;;;;;;;;;1.00;1.00;;;;;28.88;44.58;100354.41;5035149;28;46532;-72
2023/09/18 06:30:22;;;;;;;;;2.33;1.67;;;;;28.85;44.40;100344.16;5035316;28;45432;-72
2023/09/18 06:32:48;;;;;;;;;1.00;1.00;;;;;29.00;44.81;100375.75;5035528;28;45420;-73
2023/09/18 06:35:13;;;;;;;;;2.00;2.00;;;;;28.74;44.69;100324.41;5017661;28;45496;-72
2023/09/18 06:37:38;;;;;;;;;2.67;1.33;;;;;28.91;45.40;100358.47;5014591;28;45341;-75
2023/09/18 06:40:05;;;;;;;;;2.00;2.00;;;;;29.00;44.32;100373.06;5014815;28;45361;-75
2023/09/18 06:42:31;;;;;;;;;1.33;0.67;;;;;28.84;44.52;100358.59;5026457;28;45384;-77
2023/09/18 06:44:56;;;;;;;;;3.00;2.00;;;;;28.90;44.57;100362.16;5035273;28;45461;-75
2023/09/18 06:47:24;;;;;;;;;2.00;2.00;;;;;28.74;44.77;100330.56;5035084;28;45882;-75
2023/09/18 06:49:49;;;;;;;;;1.33;0.33;;;;;29.00;44.89;100369.56;5034637;28;45479;-76
2023/09/18 06:52:14;;;;;;;;;1.00;1.00;;;;;29.00;44.66;100374.94;5035179;28;45444;-76
2023/09/18 06:54:40;;;;;;;;;1.33;1.33;;;;;28.99;44.88;100376.78;5035275;28;45423;-74
2023/09/18 06:57:06;;;;;;;;;1.67;1.67;;;;;28.94;44.83;100357.94;5034994;28;47108;-76
2023/09/18 06:59:33;;;;;;;;;0.67;0.67;;;;;28.06;44.76;100230.25;5035124;28;45410;-76
2023/09/18 07:01:59;;;;;;;;;3.00;1.33;;;;;28.42;44.77;100282.03;5034996;28;45357;-75
2023/09/18 07:04:25;;;;;;;;;3.33;1.67;;;;;28.75;44.65;100336.75;5034557;28;45522;-76
2023/09/18 07:06:51;;;;;;;;;3.33;1.00;;;;;28.98;44.76;100369.00;5034674;28;46270;-75
2023/09/18 07:09:18;;;;;;;;;2.00;2.00;;;;;28.99;44.78;100376.78;5034964;28;45358;-76
2023/09/18 07:11:44;;;;;;;;;2.33;1.67;;;;;28.81;44.89;100351.03;5034844;28;45296;-75
2023/09/18 07:14:09;;;;;;;;;3.00;1.67;;;;;28.95;45.00;100370.31;5034802;28;45420;-75
2023/09/18 07:16:34;;;;;;;;;1.33;1.33;;;;;29.01;44.42;100376.56;5034586;28;45429;-76
2023/09/18 07:19:01;;;;;;;;;3.00;2.00;;;;;29.00;44.66;100378.44;5034466;28;45351;-75
2023/09/18 07:21:26;;;;;;;;;0.00;0.00;;;;;28.85;44.34;100347.66;5034890;28;45297;-75
2023/09/18 07:23:51;;;;;;;;;1.00;1.00;;;;;28.78;44.70;100346.16;5050291;28;45605;-76
2023/09/18 07:26:17;;;;;;;;;3.00;2.00;;;;;28.98;45.01;100382.41;5034853;28;47044;-75
2023/09/18 07:28:44;;;;;;;;;4.00;1.00;;;;;28.87;44.70;100373.34;5034777;28;45451;-76
2023/09/18 07:31:12;;;;;;;;;2.67;2.67;;;;;28.76;44.60;100367.81;5034846;28;45449;-76
2023/09/18 07:33:38;;;;;;;;;1.00;1.00;;;;;28.96;44.74;100385.31;5034373;28;45354;-75
2023/09/18 07:36:03;;;;;;;;;2.00;2.00;;;;;29.01;44.65;100389.97;5036374;28;45431;-76
2023/09/18 07:38:29;;;;;;;;;2.33;1.67;;;;;28.96;44.52;100383.44;5053552;28;45709;-75
2023/09/18 07:40:56;;;;;;;;;1.33;1.00;;;;;28.73;44.57;100352.22;5038103;28;45363;-76
2023/09/18 07:43:22;;;;;;;;;3.00;1.00;;;;;29.00;44.53;100401.72;5037807;28;45436;-75
2023/09/18 07:45:49;;;;;;;;;2.00;2.00;;;;;28.78;45.07;100359.56;5037671;28;45714;-76
2023/09/18 07:48:17;;;;;;;;;1.67;1.67;;;;;28.98;44.37;100404.63;5037335;28;45426;-76
2023/09/18 07:50:44;;;;;;;;;1.00;1.00;;;;;29.02;44.69;100404.97;5037649;28;45362;-77
2023/09/18 07:53:09;;;;;;;;;1.67;1.00;;;;;28.82;44.73;100364.19;5037928;28;45399;-75
2023/09/18 07:55:34;;;;;;;;;3.00;2.00;;;;;29.02;44.73;100413.00;5037626;28;45378;-75
2023/09/18 07:58:00;;;;;;;;;0.00;0.00;;;;;29.03;44.74;100414.63;5037693;28;45381;-75
2023/09/18 08:00:26;;;;;;;;;2.33;1.33;;;;;28.90;44.38;100396.97;5037732;28;45375;-76
2023/09/18 08:02:56;;;;;;;;;3.00;1.33;;;;;28.73;44.64;100374.44;5037190;28;45412;-76
2023/09/18 08:05:21;;;;;;;;;1.00;1.00;;;;;28.95;44.14;100397.91;5037631;28;45567;-76
2023/09/18 08:07:47;;;;;;;;;1.00;1.00;;;;;28.87;44.36;100387.56;5037506;28;45397;-76
2023/09/18 08:10:13;;;;;;;;;4.00;2.00;;;;;29.02;44.61;100396.91;5037613;28;45357;-76
2023/09/18 08:12:38;;;;;;;;;2.00;2.00;;;;;29.02;44.98;100407.63;5037681;28;45460;-75
2023/09/18 08:15:05;;;;;;;;;3.00;2.33;;;;;28.90;44.80;100399.66;5037248;28;47218;-76
2023/09/18 08:17:30;;;;;;;;;2.33;2.33;;;;;29.03;44.72;100404.72;5037127;28;45427;-75
2023/09/18 08:19:55;;;;;;;;;1.33;1.33;;;;;27.91;44.24;100233.44;5037440;28;45427;-76
2023/09/18 08:22:21;;;;;;;;;1.00;1.00;;;;;28.68;44.86;100352.13;5037514;28;45400;-75
2023/09/18 08:24:48;;;;;;;;;1.33;1.33;;;;;29.06;44.73;100406.13;5037300;28;45350;-76
2023/09/18 08:27:16;;;;;;;;;1.00;1.00;;;;;29.11;44.36;100405.44;5037353;28;45376;-75
2023/09/18 08:29:45;;;;;;;;;3.00;3.00;;;;;29.03;44.49;100388.66;5037428;28;45490;-75
2023/09/18 08:32:10;;;;;;;;;1.00;1.00;;;;;29.14;44.65;100395.06;5037001;28;45500;-75
2023/09/18 08:34:35;;;;;;;;;1.00;1.00;;;;;29.16;44.75;100397.50;5037035;28;46943;-74
2023/09/18 08:37:02;;;;;;;;;0.33;0.33;;;;;29.04;44.49;100376.88;5037066;28;45354;-73
2023/09/18 08:39:27;;;;;;;;;3.00;1.00;;;;;29.20;44.54;100393.25;5037371;28;45454;-74
2023/09/18 08:41:59;;;;;;;;;1.00;1.00;;;;;29.22;44.46;100388.50;5030956;28;45392;-76
2023/09/18 08:44:27;;;;;;;;;1.00;1.00;;;;;29.25;44.60;100392.56;5016727;28;46351;-76
2023/09/18 08:46:54;;;;;;;;;3.00;1.00;;;;;29.01;44.43;100366.69;5016626;28;45524;-77
2023/09/18 08:49:22;;;;;;;;;2.00;2.00;;;;;28.76;44.52;100313.44;5018277;28;45290;-76
2023/09/18 08:51:48;;;;;;;;;1.67;1.67;;;;;29.27;44.50;100391.28;5036989;28;45462;-76
2023/09/18 08:54:15;;;;;;;;;2.33;1.33;;;;;29.29;44.62;100386.47;5036779;28;45357;-76
2023/09/18 08:56:41;;;;;;;;;1.00;1.00;;;;;29.30;44.61;100381.94;5036718;28;45308;-76
2023/09/18 08:59:06;;;;;;;;;1.33;1.00;;;;;29.33;44.51;100386.00;5036476;28;45316;-76
2023/09/18 09:01:32;;;;;;;;;2.00;2.00;;;;;29.30;44.60;100384.63;5036789;28;45410;-75
2023/09/18 09:03:57;;;;;;;;;1.67;1.67;;;;;29.32;44.52;100384.38;5036516;28;45852;-76
2023/09/18 09:06:22;;;;;;;;;3.33;1.00;;;;;28.58;44.81;100265.25;5036835;28;45366;-76
2023/09/18 09:08:49;;;;;;;;;1.67;1.33;;;;;29.32;44.40;100381.69;5036771;28;45305;-76
2023/09/18 09:11:14;;;;;;;;;1.00;1.00;;;;;29.39;44.33;100390.38;5036654;28;45421;-75
2023/09/18 09:13:39;;;;;;;;;0.67;0.67;;;;;29.42;44.25;100391.75;5035946;28;47405;-75
2023/09/18 09:16:05;;;;;;;;;1.00;1.00;;;;;29.37;44.17;100387.94;5036902;28;45292;-76
2023/09/18 09:18:34;;;;;;;;;3.00;1.67;;;;;29.43;44.33;100398.75;5036920;28;45273;-75
2023/09/18 09:21:01;;;;;;;;;1.33;1.33;;;;;29.46;44.04;100398.28;5036794;28;45388;-76
2023/09/18 09:23:28;;;;;;;;;1.67;1.00;;;;;29.44;44.24;100382.44;5036284;28;46482;-76
2023/09/18 09:25:54;;;;;;;;;2.33;0.33;;;;;29.38;44.20;100386.88;5036540;28;45329;-76
2023/09/18 09:28:30;;;;;;;;;2.00;2.00;;;;;29.48;44.36;100390.81;5036129;28;45342;-75
2023/09/18 09:31:02;;;;;;;;;1.00;1.00;;;;;29.49;44.61;100381.69;5036305;28;45522;-76
2023/09/18 09:33:29;;;;;;;;;3.00;1.67;;;;;29.51;44.41;100391.13;5036134;28;46059;-75
2023/09/18 09:35:55;;;;;;;;;1.00;1.00;;;;;29.50;44.38;100386.81;5036249;28;45723;-75
2023/09/18 09:38:28;;;;;;;;;1.00;1.00;;;;;29.50;44.42;100383.31;5036359;28;45307;-75
2023/09/18 09:40:54;;;;;;;;;2.67;1.00;;;;;29.45;44.24;100380.56;5036071;28;45396;-76
2023/09/18 09:43:19;;;;;;;;;1.00;1.00;;;;;29.56;44.01;100387.69;5017878;28;45567;-75
2023/09/18 09:45:46;;;;;;;;;1.00;1.00;;;;;29.56;44.54;100395.75;5016173;28;45315;-76
2023/09/18 09:48:11;;;;;;;;;1.00;1.00;;;;;29.50;43.98;100384.16;5016210;28;45771;-76
2023/09/18 09:50:48;;;;;;;;;1.00;1.00;;;;;29.51;44.42;100374.22;5027957;28;45391;-76
2023/09/18 09:53:13;;;;;;;;;2.00;2.00;;;;;29.26;44.21;100343.28;5035896;28;46050;-76
2023/09/18 09:55:40;;;;;;;;;2.00;2.00;;;;;29.57;44.25;100386.66;5035926;28;45512;-76
2023/09/18 09:58:07;;;;;;;;;4.00;1.00;;;;;29.50;44.42;100383.31;5034792;28;45309;-76
2023/09/18 10:00:45;;;;;;;;;1.33;1.33;;;;;29.58;44.50;100400.88;5035874;28;45313;-76
2023/09/18 10:03:16;;;;;;;;;0.00;0.00;;;;;29.57;44.38;100402.75;5035372;28;46063;-76
2023/09/18 10:05:44;;;;;;;;;2.00;2.00;;;;;29.39;44.69;100383.16;5035688;28;45328;-76
2023/09/18 10:08:22;;;;;;;;;2.00;2.00;;;;;29.57;44.36;100405.41;5035908;28;45369;-76
2023/09/18 10:10:50;;;;;;;;;1.00;1.00;;;;;29.56;44.25;100405.66;5035614;28;45479;-76
2023/09/18 10:13:23;;;;;;;;;2.00;1.00;;;;;28.95;44.56;100322.09;5035081;28;47556;-76
2023/09/18 10:15:53;;;;;;;;;2.00;2.00;;;;;29.56;44.33;100411.03;5035714;28;45443;-76
2023/09/18 10:18:28;;;;;;;;;2.00;1.67;;;;;29.57;44.37;100412.63;5035832;28;45483;-75
2023/09/18 10:21:31;;;;;;;;;1.33;1.33;;;;;29.56;44.39;100405.66;5035570;28;45373;-75
2023/09/18 10:24:02;;;;;;;;;2.00;1.33;;;;;29.56;44.31;100403.00;5032300;28;46655;-77
2023/09/18 10:26:29;;;;;;;;;3.00;2.00;;;;;29.54;44.18;100405.91;5017130;28;45538;-76
2023/09/18 10:28:59;;;;;;;;;1.33;1.33;;;;;29.45;44.26;100405.50;5035578;28;45480;-75
2023/09/18 10:31:27;;;;;;;;;2.00;2.00;;;;;29.40;44.04;100394.69;5035346;28;45297;-75
2023/09/18 10:33:54;;;;;;;;;2.00;2.00;;;;;29.54;44.34;100415.78;5035446;28;45440;-75
2023/09/18 10:36:20;;;;;;;;;0.00;0.00;;;;;29.38;44.51;100400.28;5035505;28;45304;-76
2023/09/18 10:38:50;;;;;;;;;0.33;0.33;;;;;29.46;44.25;100412.47;5035383;28;45321;-76
2023/09/18 10:41:18;;;;;;;;;2.00;2.00;;;;;29.45;44.31;100404.69;5034115;28;45412;-76
2023/09/18 10:43:45;;;;;;;;;1.67;1.67;;;;;29.53;44.45;100420.38;5015225;28;45636;-75
2023/09/18 10:46:13;;;;;;;;;1.00;1.00;;;;;29.53;44.32;100412.31;5015351;28;45362;-76
2023/09/18 10:48:42;;;;;;;;;3.33;1.33;;;;;29.53;44.19;100406.97;5015459;28;45538;-76
2023/09/18 10:51:09;;;;;;;;;1.33;1.33;;;;;29.53;44.24;100404.28;5031407;28;45305;-77
2023/09/18 10:53:35;;;;;;;;;1.00;1.00;;;;;29.53;44.66;100417.69;5035137;28;46368;-77
2023/09/18 10:56:04;;;;;;;;;3.00;1.00;;;;;29.52;44.22;100405.34;5034674;28;45327;-76
2023/09/18 10:58:30;;;;;;;;;1.00;1.00;;;;;29.52;44.23;100408.00;5035301;28;45320;-76
2023/09/18 11:00:59;;;;;;;;;2.00;2.00;;;;;29.40;44.33;100382.13;5035179;28;45281;-77
2023/09/18 11:03:24;;;;;;;;;3.00;1.33;;;;;29.48;44.10;100401.53;5034768;28;47324;-76
2023/09/18 11:06:03;;;;;;;;;1.00;1.00;;;;;29.52;43.92;100402.66;5017021;28;45420;-76
2023/09/18 11:08:34;;;;;;;;;0.67;0.67;;;;;29.43;44.44;100386.19;5035395;28;45397;-76
2023/09/18 11:11:04;;;;;;;;;1.00;1.00;;;;;29.48;44.16;100386.25;5037949;28;45447;-75
2023/09/18 11:13:35;;;;;;;;;2.00;1.67;;;;;29.24;44.48;100381.03;5038316;28;47361;-76
2023/09/18 11:16:03;;;;;;;;;1.67;1.67;;;;;29.52;44.11;100408.84;5038304;28;45452;-76
2023/09/18 11:18:34;;;;;;;;;1.00;1.00;;;;;29.51;44.33;100412.56;5038617;28;45356;-76
2023/09/18 11:21:15;;;;;;;;;1.00;1.00;;;;;29.49;44.20;100411.16;5038343;28;45732;-75
2023/09/18 11:23:42;;;;;;;;;1.00;1.00;;;;;29.32;43.81;100398.59;5038039;28;46181;-75